Hlavní strana
METAR-TAF:

METAR-TAF

Letiště :

Malmö, Švédsko

zeměpisná šířka: 55-33N, zeměpisná délka: 013-22E, výška: 106 m

Aktuální stav počasí

Zpráva byla vytvořena před 37 minutami, v 21:20 UTC
Jižní vítr 5 kt
Teplota 4°C
Vlhkost vzduchu 87%
Tlak 1003 hPa
Viditelnost 10 km a více
Skoro jasno ve výšce 3900 ft

METAR: ESMS 122120Z 17005KT 9999 FEW039 04/02 Q1003

Čas: 22:57 (21:57 UTC)

Předpověď počasí

Zpráva byla vytvořena před 4 hodinami a 43 minutami, v 17:14 UTC
Předpověď platná od 12 v 18 UTC do 13 v 18 UTC
Jižní vítr 10 kt
Viditelnost 10 km a více
Polojasno ve výšce 1500 ft

TAF: ESMS 121714Z 1218/1318 17010KT 9999 SCT015

Stav a předpovědi počasí z více než 4 000 letišť (zprávy METAR a TAF).

Červené a žluté tečky na mapě představují dostupné meteorologické stanice.

Když kurzor umístíte na tečku, zobrazí se název stanice.

Pak kliknutím zobrazíte stav a předpověď počasí.

Chcete-li změnit mapu, kliknutím na zelené tlačítko se znaménkem +mapu přiblížíte, kliknutím na zelené tlačítko se znaménkem – mapu oddálíte a kliknutím na zelené šipky přejdete na sousední mapy.


METAR-TAF: